sensor_id;sensor_type;location;lat;lon;timestamp;temperature;humidity
13561;DHT22;6852;51.686;5.314;2022-12-22T00:01:59;10.00;99.90
13561;DHT22;6852;51.686;5.314;2022-12-22T00:04:47;9.90;99.90
13561;DHT22;6852;51.686;5.314;2022-12-22T00:07:34;9.80;99.90
13561;DHT22;6852;51.686;5.314;2022-12-22T00:10:19;9.80;99.90
13561;DHT22;6852;51.686;5.314;2022-12-22T00:13:07;9.90;99.90
13561;DHT22;6852;51.686;5.314;2022-12-22T00:15:53;9.80;99.90
13561;DHT22;6852;51.686;5.314;2022-12-22T00:18:39;9.70;99.90
13561;DHT22;6852;51.686;5.314;2022-12-22T00:21:27;9.80;99.90
13561;DHT22;6852;51.686;5.314;2022-12-22T00:24:13;9.80;99.90
13561;DHT22;6852;51.686;5.314;2022-12-22T00:26:59;9.70;99.90
13561;DHT22;6852;51.686;5.314;2022-12-22T00:29:44;9.70;99.90
13561;DHT22;6852;51.686;5.314;2022-12-22T00:32:35;9.70;99.90
13561;DHT22;6852;51.686;5.314;2022-12-22T00:35:22;9.80;99.90
13561;DHT22;6852;51.686;5.314;2022-12-22T00:38:20;9.90;99.90
13561;DHT22;6852;51.686;5.314;2022-12-22T00:41:05;9.80;99.90
13561;DHT22;6852;51.686;5.314;2022-12-22T00:43:51;9.80;99.90
13561;DHT22;6852;51.686;5.314;2022-12-22T00:46:38;9.80;99.90
13561;DHT22;6852;51.686;5.314;2022-12-22T00:49:25;9.70;99.90
13561;DHT22;6852;51.686;5.314;2022-12-22T00:52:12;9.60;99.90
13561;DHT22;6852;51.686;5.314;2022-12-22T00:54:58;9.70;99.90
13561;DHT22;6852;51.686;5.314;2022-12-22T00:57:44;9.70;99.90
13561;DHT22;6852;51.686;5.314;2022-12-22T01:00:30;9.60;99.90
13561;DHT22;6852;51.686;5.314;2022-12-22T01:03:15;9.70;99.90
13561;DHT22;6852;51.686;5.314;2022-12-22T01:06:01;9.80;99.90
13561;DHT22;6852;51.686;5.314;2022-12-22T01:08:47;9.80;99.90
13561;DHT22;6852;51.686;5.314;2022-12-22T01:11:34;9.70;99.90
13561;DHT22;6852;51.686;5.314;2022-12-22T01:14:20;9.70;99.90
13561;DHT22;6852;51.686;5.314;2022-12-22T01:17:05;9.80;99.90
13561;DHT22;6852;51.686;5.314;2022-12-22T01:19:51;9.80;99.90
13561;DHT22;6852;51.686;5.314;2022-12-22T01:22:36;9.80;99.90
13561;DHT22;6852;51.686;5.314;2022-12-22T01:25:22;9.90;99.90
13561;DHT22;6852;51.686;5.314;2022-12-22T01:28:15;10.00;99.90
13561;DHT22;6852;51.686;5.314;2022-12-22T01:31:27;10.00;99.90
13561;DHT22;6852;51.686;5.314;2022-12-22T01:34:13;10.00;99.90
13561;DHT22;6852;51.686;5.314;2022-12-22T01:36:59;10.00;99.90
13561;DHT22;6852;51.686;5.314;2022-12-22T01:39:44;10.00;99.90
13561;DHT22;6852;51.686;5.314;2022-12-22T01:42:33;10.10;99.90
13561;DHT22;6852;51.686;5.314;2022-12-22T01:45:25;10.10;99.90
13561;DHT22;6852;51.686;5.314;2022-12-22T01:48:15;10.10;99.90
13561;DHT22;6852;51.686;5.314;2022-12-22T01:51:06;10.00;99.90
13561;DHT22;6852;51.686;5.314;2022-12-22T01:53:55;10.10;99.90
13561;DHT22;6852;51.686;5.314;2022-12-22T01:56:43;10.20;99.90
13561;DHT22;6852;51.686;5.314;2022-12-22T01:59:29;10.20;99.90
13561;DHT22;6852;51.686;5.314;2022-12-22T02:02:16;10.20;99.90
13561;DHT22;6852;51.686;5.314;2022-12-22T02:05:03;10.20;99.90
13561;DHT22;6852;51.686;5.314;2022-12-22T02:13:58;10.30;99.90
13561;DHT22;6852;51.686;5.314;2022-12-22T02:23:34;10.20;99.90
13561;DHT22;6852;51.686;5.314;2022-12-22T02:26:33;10.20;99.90
13561;DHT22;6852;51.686;5.314;2022-12-22T02:29:25;10.20;99.90
13561;DHT22;6852;51.686;5.314;2022-12-22T02:32:12;10.20;99.90
13561;DHT22;6852;51.686;5.314;2022-12-22T02:34:58;10.10;99.90
13561;DHT22;6852;51.686;5.314;2022-12-22T02:37:56;10.00;99.90
13561;DHT22;6852;51.686;5.314;2022-12-22T02:41:14;10.00;99.90
13561;DHT22;6852;51.686;5.314;2022-12-22T02:50:27;10.10;99.90
13561;DHT22;6852;51.686;5.314;2022-12-22T02:53:15;10.20;99.90
13561;DHT22;6852;51.686;5.314;2022-12-22T02:56:04;10.10;99.90
13561;DHT22;6852;51.686;5.314;2022-12-22T02:58:51;10.10;99.90
13561;DHT22;6852;51.686;5.314;2022-12-22T03:01:37;10.20;99.90
13561;DHT22;6852;51.686;5.314;2022-12-22T03:04:23;10.30;99.90
13561;DHT22;6852;51.686;5.314;2022-12-22T03:07:09;10.30;99.90
13561;DHT22;6852;51.686;5.314;2022-12-22T03:09:54;10.20;99.90
13561;DHT22;6852;51.686;5.314;2022-12-22T03:12:39;10.30;99.90
13561;DHT22;6852;51.686;5.314;2022-12-22T03:15:25;10.20;99.90
13561;DHT22;6852;51.686;5.314;2022-12-22T03:18:11;10.20;99.90
13561;DHT22;6852;51.686;5.314;2022-12-22T03:20:57;10.20;99.90
13561;DHT22;6852;51.686;5.314;2022-12-22T03:23:43;10.20;99.90
13561;DHT22;6852;51.686;5.314;2022-12-22T03:26:29;10.30;99.90
13561;DHT22;6852;51.686;5.314;2022-12-22T03:28:56;10.30;99.90
13561;DHT22;6852;51.686;5.314;2022-12-22T03:31:23;10.30;99.90
13561;DHT22;6852;51.686;5.314;2022-12-22T03:33:49;10.40;99.90
13561;DHT22;6852;51.686;5.314;2022-12-22T03:36:16;10.40;99.90
13561;DHT22;6852;51.686;5.314;2022-12-22T03:38:43;10.40;99.90
13561;DHT22;6852;51.686;5.314;2022-12-22T03:41:10;10.40;99.90
13561;DHT22;6852;51.686;5.314;2022-12-22T03:43:57;10.40;99.90
13561;DHT22;6852;51.686;5.314;2022-12-22T03:46:42;10.40;99.90
13561;DHT22;6852;51.686;5.314;2022-12-22T03:49:08;10.40;99.90
13561;DHT22;6852;51.686;5.314;2022-12-22T03:51:53;10.40;99.90
13561;DHT22;6852;51.686;5.314;2022-12-22T03:54:22;10.40;99.90
13561;DHT22;6852;51.686;5.314;2022-12-22T03:56:50;10.40;99.90
13561;DHT22;6852;51.686;5.314;2022-12-22T03:59:17;10.40;99.90
13561;DHT22;6852;51.686;5.314;2022-12-22T04:01:47;10.50;99.90
13561;DHT22;6852;51.686;5.314;2022-12-22T04:04:15;10.50;99.90
13561;DHT22;6852;51.686;5.314;2022-12-22T04:06:43;10.40;99.90
13561;DHT22;6852;51.686;5.314;2022-12-22T04:09:11;10.40;99.90
13561;DHT22;6852;51.686;5.314;2022-12-22T04:11:38;10.40;99.90
13561;DHT22;6852;51.686;5.314;2022-12-22T04:14:23;10.40;99.90
13561;DHT22;6852;51.686;5.314;2022-12-22T04:16:59;10.40;99.90
13561;DHT22;6852;51.686;5.314;2022-12-22T04:19:26;10.50;99.90
13561;DHT22;6852;51.686;5.314;2022-12-22T04:21:53;10.40;99.90
13561;DHT22;6852;51.686;5.314;2022-12-22T04:24:20;10.10;99.90
13561;DHT22;6852;51.686;5.314;2022-12-22T04:26:48;10.00;99.90
13561;DHT22;6852;51.686;5.314;2022-12-22T04:29:15;10.00;99.90
13561;DHT22;6852;51.686;5.314;2022-12-22T04:31:42;10.10;99.90
13561;DHT22;6852;51.686;5.314;2022-12-22T04:34:09;10.20;99.90
13561;DHT22;6852;51.686;5.314;2022-12-22T04:36:36;10.20;99.90
13561;DHT22;6852;51.686;5.314;2022-12-22T04:39:03;10.30;99.90
13561;DHT22;6852;51.686;5.314;2022-12-22T04:41:30;10.30;99.90
13561;DHT22;6852;51.686;5.314;2022-12-22T04:43:57;10.30;99.90
13561;DHT22;6852;51.686;5.314;2022-12-22T04:46:23;10.30;99.90
13561;DHT22;6852;51.686;5.314;2022-12-22T04:48:50;10.30;99.90
13561;DHT22;6852;51.686;5.314;2022-12-22T04:51:26;10.20;99.90
13561;DHT22;6852;51.686;5.314;2022-12-22T04:53:52;10.20;99.90
13561;DHT22;6852;51.686;5.314;2022-12-22T04:56:19;10.20;99.90
13561;DHT22;6852;51.686;5.314;2022-12-22T04:58:46;10.20;99.90
13561;DHT22;6852;51.686;5.314;2022-12-22T05:01:15;10.20;99.90
13561;DHT22;6852;51.686;5.314;2022-12-22T05:03:42;10.20;99.90
13561;DHT22;6852;51.686;5.314;2022-12-22T05:06:10;10.30;99.90
13561;DHT22;6852;51.686;5.314;2022-12-22T05:08:37;10.30;99.90
13561;DHT22;6852;51.686;5.314;2022-12-22T05:11:04;10.30;99.90
13561;DHT22;6852;51.686;5.314;2022-12-22T05:13:31;10.30;99.90
13561;DHT22;6852;51.686;5.314;2022-12-22T05:16:06;10.20;99.90
13561;DHT22;6852;51.686;5.314;2022-12-22T05:18:34;10.30;99.90
13561;DHT22;6852;51.686;5.314;2022-12-22T05:21:04;10.20;99.90
13561;DHT22;6852;51.686;5.314;2022-12-22T05:23:32;10.20;99.90
13561;DHT22;6852;51.686;5.314;2022-12-22T05:25:58;10.10;99.90
13561;DHT22;6852;51.686;5.314;2022-12-22T05:28:25;10.20;99.90
13561;DHT22;6852;51.686;5.314;2022-12-22T05:30:52;10.30;99.90
13561;DHT22;6852;51.686;5.314;2022-12-22T05:33:20;10.30;99.90
13561;DHT22;6852;51.686;5.314;2022-12-22T05:35:47;10.30;99.90
13561;DHT22;6852;51.686;5.314;2022-12-22T05:38:13;10.30;99.90
13561;DHT22;6852;51.686;5.314;2022-12-22T05:40:40;10.30;99.90
13561;DHT22;6852;51.686;5.314;2022-12-22T05:43:07;10.40;99.90
13561;DHT22;6852;51.686;5.314;2022-12-22T05:45:35;10.40;99.90
13561;DHT22;6852;51.686;5.314;2022-12-22T05:48:02;10.40;99.90
13561;DHT22;6852;51.686;5.314;2022-12-22T05:50:29;10.50;99.90
13561;DHT22;6852;51.686;5.314;2022-12-22T05:52:57;10.40;99.90
13561;DHT22;6852;51.686;5.314;2022-12-22T05:55:24;10.50;99.90
13561;DHT22;6852;51.686;5.314;2022-12-22T05:57:51;10.40;99.90
13561;DHT22;6852;51.686;5.314;2022-12-22T06:00:18;10.40;99.90
13561;DHT22;6852;51.686;5.314;2022-12-22T06:02:45;10.40;99.90
13561;DHT22;6852;51.686;5.314;2022-12-22T06:05:13;10.40;99.90
13561;DHT22;6852;51.686;5.314;2022-12-22T06:07:40;10.40;99.90
13561;DHT22;6852;51.686;5.314;2022-12-22T06:10:08;10.40;99.90
13561;DHT22;6852;51.686;5.314;2022-12-22T06:12:39;10.40;99.90
13561;DHT22;6852;51.686;5.314;2022-12-22T06:15:06;10.30;99.90
13561;DHT22;6852;51.686;5.314;2022-12-22T06:17:34;10.30;99.90
13561;DHT22;6852;51.686;5.314;2022-12-22T06:20:10;10.40;99.90
13561;DHT22;6852;51.686;5.314;2022-12-22T06:22:37;10.30;99.90
13561;DHT22;6852;51.686;5.314;2022-12-22T06:25:04;10.30;99.90
13561;DHT22;6852;51.686;5.314;2022-12-22T06:27:31;10.20;99.90
13561;DHT22;6852;51.686;5.314;2022-12-22T06:29:57;10.20;99.90
13561;DHT22;6852;51.686;5.314;2022-12-22T06:32:24;10.30;99.90
13561;DHT22;6852;51.686;5.314;2022-12-22T06:34:51;10.20;99.90
13561;DHT22;6852;51.686;5.314;2022-12-22T06:37:18;10.20;99.90
13561;DHT22;6852;51.686;5.314;2022-12-22T06:39:45;10.10;99.90
13561;DHT22;6852;51.686;5.314;2022-12-22T06:42:12;10.10;99.90
13561;DHT22;6852;51.686;5.314;2022-12-22T06:44:57;10.10;99.90
13561;DHT22;6852;51.686;5.314;2022-12-22T06:47:24;10.10;99.90
13561;DHT22;6852;51.686;5.314;2022-12-22T06:49:50;10.10;99.90
13561;DHT22;6852;51.686;5.314;2022-12-22T06:52:17;10.10;99.90
13561;DHT22;6852;51.686;5.314;2022-12-22T06:54:44;10.10;99.90
13561;DHT22;6852;51.686;5.314;2022-12-22T06:57:11;10.20;99.90
13561;DHT22;6852;51.686;5.314;2022-12-22T06:59:38;10.10;99.90
13561;DHT22;6852;51.686;5.314;2022-12-22T07:02:05;10.10;99.90
13561;DHT22;6852;51.686;5.314;2022-12-22T07:04:32;10.10;99.90
13561;DHT22;6852;51.686;5.314;2022-12-22T07:07:00;10.10;99.90
13561;DHT22;6852;51.686;5.314;2022-12-22T07:09:28;10.10;99.90
13561;DHT22;6852;51.686;5.314;2022-12-22T07:11:55;10.20;99.90
13561;DHT22;6852;51.686;5.314;2022-12-22T07:14:21;10.20;99.90
13561;DHT22;6852;51.686;5.314;2022-12-22T07:16:48;10.20;99.90
13561;DHT22;6852;51.686;5.314;2022-12-22T07:19:15;10.20;99.90
13561;DHT22;6852;51.686;5.314;2022-12-22T07:21:42;10.10;99.90
13561;DHT22;6852;51.686;5.314;2022-12-22T07:24:09;10.10;99.90
13561;DHT22;6852;51.686;5.314;2022-12-22T07:26:36;10.00;99.90
13561;DHT22;6852;51.686;5.314;2022-12-22T07:29:02;10.00;99.90
13561;DHT22;6852;51.686;5.314;2022-12-22T07:31:29;10.00;99.90
13561;DHT22;6852;51.686;5.314;2022-12-22T07:33:56;10.00;99.90
13561;DHT22;6852;51.686;5.314;2022-12-22T07:36:23;10.00;99.90
13561;DHT22;6852;51.686;5.314;2022-12-22T07:38:50;9.90;99.90
13561;DHT22;6852;51.686;5.314;2022-12-22T07:41:18;9.90;99.90
13561;DHT22;6852;51.686;5.314;2022-12-22T07:44:04;9.90;99.90
13561;DHT22;6852;51.686;5.314;2022-12-22T07:46:34;9.80;99.90
13561;DHT22;6852;51.686;5.314;2022-12-22T07:49:03;9.80;99.90
13561;DHT22;6852;51.686;5.314;2022-12-22T07:51:48;9.90;99.90
13561;DHT22;6852;51.686;5.314;2022-12-22T07:54:16;10.00;99.90
13561;DHT22;6852;51.686;5.314;2022-12-22T07:56:44;10.00;99.90
13561;DHT22;6852;51.686;5.314;2022-12-22T07:59:12;9.90;99.90
13561;DHT22;6852;51.686;5.314;2022-12-22T08:01:39;9.80;99.90
13561;DHT22;6852;51.686;5.314;2022-12-22T08:04:08;9.70;99.90
13561;DHT22;6852;51.686;5.314;2022-12-22T08:06:35;9.90;99.90
13561;DHT22;6852;51.686;5.314;2022-12-22T08:09:03;9.80;99.90
13561;DHT22;6852;51.686;5.314;2022-12-22T08:11:31;9.70;99.90
13561;DHT22;6852;51.686;5.314;2022-12-22T08:13:58;9.70;99.90
13561;DHT22;6852;51.686;5.314;2022-12-22T08:16:27;9.80;99.90
13561;DHT22;6852;51.686;5.314;2022-12-22T08:18:54;9.70;99.90
13561;DHT22;6852;51.686;5.314;2022-12-22T08:21:22;9.80;99.90
13561;DHT22;6852;51.686;5.314;2022-12-22T08:23:49;9.80;99.90
13561;DHT22;6852;51.686;5.314;2022-12-22T08:26:35;9.70;99.90
13561;DHT22;6852;51.686;5.314;2022-12-22T08:29:11;9.80;99.90
13561;DHT22;6852;51.686;5.314;2022-12-22T08:31:39;9.80;99.90
13561;DHT22;6852;51.686;5.314;2022-12-22T08:34:09;9.80;99.90
13561;DHT22;6852;51.686;5.314;2022-12-22T08:36:42;9.80;99.90
13561;DHT22;6852;51.686;5.314;2022-12-22T08:39:10;9.70;99.90
13561;DHT22;6852;51.686;5.314;2022-12-22T08:41:37;9.70;99.90
13561;DHT22;6852;51.686;5.314;2022-12-22T08:44:27;9.70;99.90
13561;DHT22;6852;51.686;5.314;2022-12-22T08:46:56;9.70;99.90
13561;DHT22;6852;51.686;5.314;2022-12-22T08:49:23;9.60;99.90
13561;DHT22;6852;51.686;5.314;2022-12-22T08:51:51;9.70;99.90
13561;DHT22;6852;51.686;5.314;2022-12-22T08:54:18;9.60;99.90
13561;DHT22;6852;51.686;5.314;2022-12-22T08:56:45;9.50;99.90
13561;DHT22;6852;51.686;5.314;2022-12-22T08:59:12;9.40;99.90
13561;DHT22;6852;51.686;5.314;2022-12-22T09:01:41;9.30;99.90
13561;DHT22;6852;51.686;5.314;2022-12-22T09:04:15;9.30;99.90
13561;DHT22;6852;51.686;5.314;2022-12-22T09:06:43;9.10;99.90
13561;DHT22;6852;51.686;5.314;2022-12-22T09:09:11;9.20;99.90
13561;DHT22;6852;51.686;5.314;2022-12-22T09:11:39;9.20;99.90
13561;DHT22;6852;51.686;5.314;2022-12-22T09:14:08;9.20;99.90
13561;DHT22;6852;51.686;5.314;2022-12-22T09:16:35;9.10;99.90
13561;DHT22;6852;51.686;5.314;2022-12-22T09:19:02;8.90;99.90
13561;DHT22;6852;51.686;5.314;2022-12-22T09:21:30;9.00;99.90
13561;DHT22;6852;51.686;5.314;2022-12-22T09:23:57;9.20;99.90
13561;DHT22;6852;51.686;5.314;2022-12-22T09:26:26;9.40;99.90
13561;DHT22;6852;51.686;5.314;2022-12-22T09:28:54;9.50;99.90
13561;DHT22;6852;51.686;5.314;2022-12-22T09:31:22;9.60;99.90
13561;DHT22;6852;51.686;5.314;2022-12-22T09:33:50;9.50;99.90
13561;DHT22;6852;51.686;5.314;2022-12-22T09:36:23;9.40;99.90
13561;DHT22;6852;51.686;5.314;2022-12-22T09:38:51;9.40;99.90
13561;DHT22;6852;51.686;5.314;2022-12-22T09:44:15;9.30;99.90
13561;DHT22;6852;51.686;5.314;2022-12-22T09:46:45;9.30;99.90
13561;DHT22;6852;51.686;5.314;2022-12-22T09:49:15;9.30;99.90
13561;DHT22;6852;51.686;5.314;2022-12-22T09:51:47;9.40;99.90
13561;DHT22;6852;51.686;5.314;2022-12-22T09:54:14;9.40;99.90
13561;DHT22;6852;51.686;5.314;2022-12-22T09:56:42;9.40;99.90
13561;DHT22;6852;51.686;5.314;2022-12-22T09:59:17;9.40;99.90
13561;DHT22;6852;51.686;5.314;2022-12-22T10:04:40;9.50;99.90
13561;DHT22;6852;51.686;5.314;2022-12-22T10:12:39;9.50;99.90
13561;DHT22;6852;51.686;5.314;2022-12-22T10:15:10;9.40;99.90
13561;DHT22;6852;51.686;5.314;2022-12-22T10:17:44;9.40;99.90
13561;DHT22;6852;51.686;5.314;2022-12-22T10:20:24;9.40;99.90
13561;DHT22;6852;51.686;5.314;2022-12-22T10:23:17;9.30;99.90
13561;DHT22;6852;51.686;5.314;2022-12-22T10:26:09;9.30;99.90
13561;DHT22;6852;51.686;5.314;2022-12-22T10:29:05;9.20;99.90
13561;DHT22;6852;51.686;5.314;2022-12-22T10:31:34;9.30;99.90
13561;DHT22;6852;51.686;5.314;2022-12-22T10:34:16;9.30;99.90
13561;DHT22;6852;51.686;5.314;2022-12-22T10:36:48;9.30;99.90
13561;DHT22;6852;51.686;5.314;2022-12-22T10:39:21;9.20;99.90
13561;DHT22;6852;51.686;5.314;2022-12-22T10:41:50;9.10;99.90
13561;DHT22;6852;51.686;5.314;2022-12-22T10:44:20;9.20;99.90
13561;DHT22;6852;51.686;5.314;2022-12-22T10:46:53;9.10;99.90
13561;DHT22;6852;51.686;5.314;2022-12-22T10:49:35;9.10;99.90
13561;DHT22;6852;51.686;5.314;2022-12-22T10:54:37;9.20;99.90
13561;DHT22;6852;51.686;5.314;2022-12-22T10:59:51;9.50;99.90
13561;DHT22;6852;51.686;5.314;2022-12-22T11:04:51;9.60;99.90
13561;DHT22;6852;51.686;5.314;2022-12-22T11:07:19;9.60;99.90
13561;DHT22;6852;51.686;5.314;2022-12-22T11:09:46;9.60;99.90
13561;DHT22;6852;51.686;5.314;2022-12-22T11:12:30;9.50;99.90
13561;DHT22;6852;51.686;5.314;2022-12-22T11:15:13;9.40;99.90
13561;DHT22;6852;51.686;5.314;2022-12-22T11:18:34;9.30;99.90
13561;DHT22;6852;51.686;5.314;2022-12-22T11:23:31;9.30;99.90
13561;DHT22;6852;51.686;5.314;2022-12-22T11:26:16;9.40;99.90
13561;DHT22;6852;51.686;5.314;2022-12-22T11:34:37;9.10;99.90
13561;DHT22;6852;51.686;5.314;2022-12-22T11:43:24;8.80;99.90
13561;DHT22;6852;51.686;5.314;2022-12-22T11:46:24;8.90;99.90
13561;DHT22;6852;51.686;5.314;2022-12-22T11:57:05;9.10;99.90
13561;DHT22;6852;51.686;5.314;2022-12-22T12:05:10;8.90;99.90
13561;DHT22;6852;51.686;5.314;2022-12-22T12:07:43;8.90;99.90
13561;DHT22;6852;51.686;5.314;2022-12-22T12:10:26;9.00;99.90
13561;DHT22;6852;51.686;5.314;2022-12-22T12:16:10;9.30;99.90
13561;DHT22;6852;51.686;5.314;2022-12-22T12:19:03;9.40;99.90
13561;DHT22;6852;51.686;5.314;2022-12-22T12:21:49;9.30;99.90
13561;DHT22;6852;51.686;5.314;2022-12-22T12:30:06;9.30;99.90
13561;DHT22;6852;51.686;5.314;2022-12-22T12:33:06;9.40;99.90
13561;DHT22;6852;51.686;5.314;2022-12-22T12:38:47;9.50;99.90
13561;DHT22;6852;51.686;5.314;2022-12-22T12:44:16;9.50;99.90
13561;DHT22;6852;51.686;5.314;2022-12-22T12:52:09;9.50;99.90
13561;DHT22;6852;51.686;5.314;2022-12-22T12:54:37;9.50;99.90
13561;DHT22;6852;51.686;5.314;2022-12-22T12:59:52;9.50;99.90
13561;DHT22;6852;51.686;5.314;2022-12-22T13:02:37;9.50;99.90
13561;DHT22;6852;51.686;5.314;2022-12-22T13:10:38;9.60;99.90
13561;DHT22;6852;51.686;5.314;2022-12-22T13:18:41;9.60;99.90
13561;DHT22;6852;51.686;5.314;2022-12-22T13:21:17;9.60;99.90
13561;DHT22;6852;51.686;5.314;2022-12-22T13:24:15;9.60;99.90
13561;DHT22;6852;51.686;5.314;2022-12-22T13:26:54;9.60;99.90
13561;DHT22;6852;51.686;5.314;2022-12-22T13:32:00;9.70;99.90
13561;DHT22;6852;51.686;5.314;2022-12-22T13:34:45;9.60;99.90
13561;DHT22;6852;51.686;5.314;2022-12-22T13:37:40;9.70;99.90
13561;DHT22;6852;51.686;5.314;2022-12-22T13:46:00;9.50;99.90
13561;DHT22;6852;51.686;5.314;2022-12-22T13:48:39;9.40;99.90
13561;DHT22;6852;51.686;5.314;2022-12-22T13:51:21;9.50;99.90
13561;DHT22;6852;51.686;5.314;2022-12-22T13:56:43;9.60;99.90
13561;DHT22;6852;51.686;5.314;2022-12-22T13:59:27;9.60;99.90
13561;DHT22;6852;51.686;5.314;2022-12-22T14:02:03;9.50;99.90
13561;DHT22;6852;51.686;5.314;2022-12-22T14:04:43;9.50;99.90
13561;DHT22;6852;51.686;5.314;2022-12-22T14:07:18;9.50;99.90
13561;DHT22;6852;51.686;5.314;2022-12-22T14:09:50;9.60;99.90
13561;DHT22;6852;51.686;5.314;2022-12-22T14:12:41;9.60;99.90
13561;DHT22;6852;51.686;5.314;2022-12-22T14:15:18;9.60;99.90
13561;DHT22;6852;51.686;5.314;2022-12-22T14:17:45;9.60;99.90
13561;DHT22;6852;51.686;5.314;2022-12-22T14:20:23;9.50;99.90
13561;DHT22;6852;51.686;5.314;2022-12-22T14:22:55;9.60;99.90
13561;DHT22;6852;51.686;5.314;2022-12-22T14:25:32;9.60;99.90
13561;DHT22;6852;51.686;5.314;2022-12-22T14:27:59;9.70;99.90
13561;DHT22;6852;51.686;5.314;2022-12-22T14:30:30;9.70;99.90
13561;DHT22;6852;51.686;5.314;2022-12-22T14:33:15;9.70;99.90
13561;DHT22;6852;51.686;5.314;2022-12-22T14:35:43;9.60;99.90
13561;DHT22;6852;51.686;5.314;2022-12-22T14:38:21;9.60;99.90
13561;DHT22;6852;51.686;5.314;2022-12-22T14:40:49;9.60;99.90
13561;DHT22;6852;51.686;5.314;2022-12-22T14:43:26;9.60;99.90
13561;DHT22;6852;51.686;5.314;2022-12-22T14:46:02;9.50;99.90
13561;DHT22;6852;51.686;5.314;2022-12-22T14:48:33;9.50;99.90
13561;DHT22;6852;51.686;5.314;2022-12-22T14:51:01;9.60;99.90
13561;DHT22;6852;51.686;5.314;2022-12-22T14:53:42;9.60;99.90
13561;DHT22;6852;51.686;5.314;2022-12-22T14:56:12;9.70;99.90
13561;DHT22;6852;51.686;5.314;2022-12-22T14:58:41;9.70;99.90
13561;DHT22;6852;51.686;5.314;2022-12-22T15:01:19;9.70;99.90
13561;DHT22;6852;51.686;5.314;2022-12-22T15:04:14;9.60;99.90
13561;DHT22;6852;51.686;5.314;2022-12-22T15:06:44;9.40;99.90
13561;DHT22;6852;51.686;5.314;2022-12-22T15:11:45;9.40;99.90
13561;DHT22;6852;51.686;5.314;2022-12-22T15:14:18;9.20;99.90
13561;DHT22;6852;51.686;5.314;2022-12-22T15:16:46;9.20;99.90
13561;DHT22;6852;51.686;5.314;2022-12-22T15:19:15;9.40;99.90
13561;DHT22;6852;51.686;5.314;2022-12-22T15:21:43;9.40;99.90
13561;DHT22;6852;51.686;5.314;2022-12-22T15:24:14;9.30;99.90
13561;DHT22;6852;51.686;5.314;2022-12-22T15:26:42;9.30;99.90
13561;DHT22;6852;51.686;5.314;2022-12-22T15:29:09;9.20;99.90
13561;DHT22;6852;51.686;5.314;2022-12-22T15:31:37;9.40;99.90
13561;DHT22;6852;51.686;5.314;2022-12-22T15:34:32;9.40;99.90
13561;DHT22;6852;51.686;5.314;2022-12-22T15:36:57;9.40;99.90
13561;DHT22;6852;51.686;5.314;2022-12-22T15:39:24;9.30;99.90
13561;DHT22;6852;51.686;5.314;2022-12-22T15:41:51;9.30;99.90
13561;DHT22;6852;51.686;5.314;2022-12-22T15:44:20;9.30;99.90
13561;DHT22;6852;51.686;5.314;2022-12-22T15:46:54;9.20;99.90
13561;DHT22;6852;51.686;5.314;2022-12-22T15:49:24;9.20;99.90
13561;DHT22;6852;51.686;5.314;2022-12-22T15:51:54;9.40;99.90
13561;DHT22;6852;51.686;5.314;2022-12-22T15:54:22;9.30;99.90
13561;DHT22;6852;51.686;5.314;2022-12-22T15:56:51;9.30;99.90
13561;DHT22;6852;51.686;5.314;2022-12-22T15:59:22;9.30;99.90
13561;DHT22;6852;51.686;5.314;2022-12-22T16:01:51;9.20;99.90
13561;DHT22;6852;51.686;5.314;2022-12-22T16:04:26;9.20;99.90
13561;DHT22;6852;51.686;5.314;2022-12-22T16:06:54;9.20;99.90
13561;DHT22;6852;51.686;5.314;2022-12-22T16:09:25;9.10;99.90
13561;DHT22;6852;51.686;5.314;2022-12-22T16:11:53;9.10;99.90
13561;DHT22;6852;51.686;5.314;2022-12-22T16:14:21;9.20;99.90
13561;DHT22;6852;51.686;5.314;2022-12-22T16:16:49;9.30;99.90
13561;DHT22;6852;51.686;5.314;2022-12-22T16:19:17;9.20;99.90
13561;DHT22;6852;51.686;5.314;2022-12-22T16:21:46;9.30;99.90
13561;DHT22;6852;51.686;5.314;2022-12-22T16:24:33;9.20;99.90
13561;DHT22;6852;51.686;5.314;2022-12-22T16:27:01;9.30;99.90
13561;DHT22;6852;51.686;5.314;2022-12-22T16:29:29;9.10;99.90
13561;DHT22;6852;51.686;5.314;2022-12-22T16:32:16;9.20;99.90
13561;DHT22;6852;51.686;5.314;2022-12-22T16:34:47;9.20;99.90
13561;DHT22;6852;51.686;5.314;2022-12-22T16:37:14;9.20;99.90
13561;DHT22;6852;51.686;5.314;2022-12-22T16:39:41;9.20;99.90
13561;DHT22;6852;51.686;5.314;2022-12-22T16:42:12;9.20;99.90
13561;DHT22;6852;51.686;5.314;2022-12-22T16:44:57;9.40;99.90
13561;DHT22;6852;51.686;5.314;2022-12-22T16:47:31;9.40;99.90
13561;DHT22;6852;51.686;5.314;2022-12-22T16:49:59;9.40;99.90
13561;DHT22;6852;51.686;5.314;2022-12-22T16:52:37;9.40;99.90
13561;DHT22;6852;51.686;5.314;2022-12-22T16:55:13;9.50;99.90
13561;DHT22;6852;51.686;5.314;2022-12-22T16:57:41;9.50;99.90
13561;DHT22;6852;51.686;5.314;2022-12-22T17:00:13;9.50;99.90
13561;DHT22;6852;51.686;5.314;2022-12-22T17:02:46;9.30;99.90
13561;DHT22;6852;51.686;5.314;2022-12-22T17:05:24;9.40;99.90
13561;DHT22;6852;51.686;5.314;2022-12-22T17:07:52;9.40;99.90
13561;DHT22;6852;51.686;5.314;2022-12-22T17:10:20;9.30;99.90
13561;DHT22;6852;51.686;5.314;2022-12-22T17:12:48;9.40;99.90
13561;DHT22;6852;51.686;5.314;2022-12-22T17:15:18;9.30;99.90
13561;DHT22;6852;51.686;5.314;2022-12-22T17:17:47;9.30;99.90
13561;DHT22;6852;51.686;5.314;2022-12-22T17:20:16;9.50;99.90
13561;DHT22;6852;51.686;5.314;2022-12-22T17:22:47;9.40;99.90
13561;DHT22;6852;51.686;5.314;2022-12-22T17:25:18;9.50;99.90
13561;DHT22;6852;51.686;5.314;2022-12-22T17:27:46;9.50;99.90
13561;DHT22;6852;51.686;5.314;2022-12-22T17:30:19;9.50;99.90
13561;DHT22;6852;51.686;5.314;2022-12-22T17:32:46;9.50;99.90
13561;DHT22;6852;51.686;5.314;2022-12-22T17:35:14;9.50;99.90
13561;DHT22;6852;51.686;5.314;2022-12-22T17:37:43;9.60;99.90
13561;DHT22;6852;51.686;5.314;2022-12-22T17:40:31;9.60;99.90
13561;DHT22;6852;51.686;5.314;2022-12-22T17:42:59;9.60;99.90
13561;DHT22;6852;51.686;5.314;2022-12-22T17:45:26;9.60;99.90
13561;DHT22;6852;51.686;5.314;2022-12-22T17:47:53;9.70;99.90
13561;DHT22;6852;51.686;5.314;2022-12-22T17:50:21;9.70;99.90
13561;DHT22;6852;51.686;5.314;2022-12-22T17:52:48;9.80;99.90
13561;DHT22;6852;51.686;5.314;2022-12-22T17:55:24;9.80;99.90
13561;DHT22;6852;51.686;5.314;2022-12-22T17:58:13;9.80;99.90
13561;DHT22;6852;51.686;5.314;2022-12-22T18:00:40;9.90;99.90
13561;DHT22;6852;51.686;5.314;2022-12-22T18:03:12;9.90;99.90
13561;DHT22;6852;51.686;5.314;2022-12-22T18:05:44;9.90;99.90
13561;DHT22;6852;51.686;5.314;2022-12-22T18:08:15;9.90;99.90
13561;DHT22;6852;51.686;5.314;2022-12-22T18:10:43;9.90;99.90
13561;DHT22;6852;51.686;5.314;2022-12-22T18:13:21;10.00;99.90
13561;DHT22;6852;51.686;5.314;2022-12-22T18:15:50;10.00;99.90
13561;DHT22;6852;51.686;5.314;2022-12-22T18:18:18;10.00;99.90
13561;DHT22;6852;51.686;5.314;2022-12-22T18:20:47;10.10;99.90
13561;DHT22;6852;51.686;5.314;2022-12-22T18:23:33;10.10;99.90
13561;DHT22;6852;51.686;5.314;2022-12-22T18:26:03;10.10;99.90
13561;DHT22;6852;51.686;5.314;2022-12-22T18:28:31;10.10;99.90
13561;DHT22;6852;51.686;5.314;2022-12-22T18:30:58;10.10;99.90
13561;DHT22;6852;51.686;5.314;2022-12-22T18:33:25;10.10;99.90
13561;DHT22;6852;51.686;5.314;2022-12-22T18:35:51;10.20;99.90